Time;durP1;ratioP1;P1;durP2;ratioP2;P2;SDS_P1;SDS_P2;PMS_P1;PMS_P2;Temp;Humidity;BMP_temperature;BMP_pressure;BME280_temperature;BME280_humidity;BME280_pressure;Samples;Min_cycle;Max_cycle;Signal;HPM_P1;HPM_P2
2022/05/28 00:00:07;;;;;;;7.77;1.70;;;;;;;;;;509937;28;1677;-86
2022/05/28 00:00:22;;;;;;;8.38;1.67;;;;;;;;;;512779;28;1630;-87
2022/05/28 00:00:38;;;;;;;7.53;1.60;;;;;;;;;;514857;28;1428;-86
2022/05/28 00:00:56;;;;;;;7.80;1.70;;;;;;;;;;514622;28;1918;-86
2022/05/28 00:01:16;;;;;;;9.38;1.63;;;;;;;;;;517452;28;1447;-86
2022/05/28 00:01:31;;;;;;;8.73;1.50;;;;;;;;;;520028;28;1635;-87
2022/05/28 00:01:47;;;;;;;6.00;1.50;;;;;;;;;;518401;28;1649;-86
2022/05/28 00:02:02;;;;;;;6.03;1.60;;;;;;;;;;518355;28;1682;-86
2022/05/28 00:02:18;;;;;;;6.55;1.58;;;;;;;;;;517823;28;1439;-87
2022/05/28 00:02:33;;;;;;;6.00;1.40;;;;;;;;;;517764;28;1635;-86
2022/05/28 00:02:49;;;;;;;6.85;1.42;;;;;;;;;;519434;28;1446;-86
2022/05/28 00:03:04;;;;;;;7.70;1.47;;;;;;;;;;517602;28;1745;-86
2022/05/28 00:03:20;;;;;;;7.43;1.40;;;;;;;;;;518889;28;1676;-87
2022/05/28 00:03:36;;;;;;;5.53;1.40;;;;;;;;;;518018;28;1759;-87
2022/05/28 00:03:53;;;;;;;5.10;1.30;;;;;;;;;;517818;28;1502;-86
2022/05/28 00:04:09;;;;;;;5.97;1.40;;;;;;;;;;518789;28;1301;-87
2022/05/28 00:04:24;;;;;;;6.95;1.52;;;;;;;;;;516772;28;1703;-86
2022/05/28 00:04:39;;;;;;;6.47;1.50;;;;;;;;;;514552;28;1412;-87
2022/05/28 00:04:55;;;;;;;8.03;1.80;;;;;;;;;;514991;28;1685;-86
2022/05/28 00:05:11;;;;;;;9.88;2.13;;;;;;;;;;514605;28;1440;-87
2022/05/28 00:05:26;;;;;;;8.85;2.00;;;;;;;;;;513895;28;1570;-87
2022/05/28 00:05:42;;;;;;;7.87;1.60;;;;;;;;;;514152;28;1554;-86
2022/05/28 00:05:57;;;;;;;7.50;1.40;;;;;;;;;;515614;28;1675;-86
2022/05/28 00:06:16;;;;;;;7.47;1.55;;;;;;;;;;516103;28;1396;-86
2022/05/28 00:06:33;;;;;;;7.15;1.52;;;;;;;;;;516243;28;1697;-87
2022/05/28 00:06:48;;;;;;;7.82;1.50;;;;;;;;;;516553;28;1484;-86
2022/05/28 00:07:04;;;;;;;7.73;1.60;;;;;;;;;;515942;28;1809;-86
2022/05/28 00:07:20;;;;;;;7.03;1.40;;;;;;;;;;514637;28;1518;-86
2022/05/28 00:07:35;;;;;;;6.55;1.35;;;;;;;;;;513843;28;1609;-86
2022/05/28 00:07:50;;;;;;;7.07;1.50;;;;;;;;;;514402;28;1437;-87
2022/05/28 00:08:06;;;;;;;7.33;1.50;;;;;;;;;;514613;28;1614;-86
2022/05/28 00:08:24;;;;;;;6.68;1.52;;;;;;;;;;512790;28;1793;-86
2022/05/28 00:08:40;;;;;;;6.83;1.50;;;;;;;;;;513362;28;1278;-86
2022/05/28 00:08:56;;;;;;;7.35;1.58;;;;;;;;;;512493;28;1597;-86
2022/05/28 00:09:11;;;;;;;7.07;1.67;;;;;;;;;;513826;28;1487;-86
2022/05/28 00:09:27;;;;;;;7.40;1.63;;;;;;;;;;515015;28;1487;-86
2022/05/28 00:09:42;;;;;;;8.68;1.70;;;;;;;;;;517328;28;1515;-87
2022/05/28 00:09:58;;;;;;;8.30;1.63;;;;;;;;;;517763;28;1400;-86
2022/05/28 00:10:19;;;;;;;8.60;1.40;;;;;;;;;;517012;28;1332;-86
2022/05/28 00:10:35;;;;;;;7.57;1.58;;;;;;;;;;517004;28;1649;-88
2022/05/28 00:10:54;;;;;;;6.38;1.65;;;;;;;;;;515236;28;1408;-88
2022/05/28 00:11:24;;;;;;;7.57;1.60;;;;;;;;;;513943;28;1478;-87
2022/05/28 00:11:41;;;;;;;8.75;1.70;;;;;;;;;;518057;28;1379;-86
2022/05/28 00:11:57;;;;;;;7.63;1.60;;;;;;;;;;518594;28;1396;-86
2022/05/28 00:12:12;;;;;;;8.00;1.58;;;;;;;;;;518976;28;1557;-86
2022/05/28 00:12:29;;;;;;;7.43;1.40;;;;;;;;;;519074;28;1262;-86
2022/05/28 00:12:45;;;;;;;6.32;1.30;;;;;;;;;;520004;28;1528;-87
2022/05/28 00:13:00;;;;;;;7.25;1.50;;;;;;;;;;521075;28;1411;-86
2022/05/28 00:13:16;;;;;;;7.57;1.70;;;;;;;;;;518982;28;1780;-86
2022/05/28 00:13:31;;;;;;;7.65;1.77;;;;;;;;;;517453;28;1557;-87
2022/05/28 00:13:48;;;;;;;8.17;1.70;;;;;;;;;;516009;28;1541;-86
2022/05/28 00:14:04;;;;;;;6.78;1.50;;;;;;;;;;515292;28;1542;-87
2022/05/28 00:14:20;;;;;;;6.65;1.30;;;;;;;;;;515703;28;1349;-86
2022/05/28 00:14:35;;;;;;;8.25;1.58;;;;;;;;;;517026;28;1530;-86
2022/05/28 00:14:51;;;;;;;10.03;1.90;;;;;;;;;;516032;28;1453;-86
2022/05/28 00:15:07;;;;;;;8.07;1.52;;;;;;;;;;515341;28;1602;-86
2022/05/28 00:15:23;;;;;;;7.25;1.60;;;;;;;;;;515658;28;1544;-87
2022/05/28 00:15:41;;;;;;;7.23;1.60;;;;;;;;;;515784;28;1619;-86
2022/05/28 00:15:57;;;;;;;7.97;1.40;;;;;;;;;;516518;28;1754;-86
2022/05/28 00:16:13;;;;;;;7.72;1.42;;;;;;;;;;515268;28;1501;-86
2022/05/28 00:16:28;;;;;;;6.25;1.40;;;;;;;;;;513220;28;1456;-86
2022/05/28 00:16:46;;;;;;;8.30;1.67;;;;;;;;;;514247;28;1656;-87
2022/05/28 00:17:01;;;;;;;8.85;1.60;;;;;;;;;;515277;28;1449;-87
2022/05/28 00:17:16;;;;;;;7.57;1.30;;;;;;;;;;515714;28;1877;-87
2022/05/28 00:17:33;;;;;;;7.53;1.40;;;;;;;;;;517183;28;1392;-86
2022/05/28 00:17:48;;;;;;;9.65;1.70;;;;;;;;;;516947;28;1430;-86
2022/05/28 00:18:03;;;;;;;8.67;1.80;;;;;;;;;;516466;28;1416;-86
2022/05/28 00:18:19;;;;;;;7.38;1.50;;;;;;;;;;519107;28;1684;-87
2022/05/28 00:18:37;;;;;;;6.87;1.40;;;;;;;;;;516988;28;1379;-86
2022/05/28 00:18:52;;;;;;;7.30;1.70;;;;;;;;;;516804;28;1543;-87
2022/05/28 00:19:08;;;;;;;9.80;1.83;;;;;;;;;;516921;28;1682;-86
2022/05/28 00:19:24;;;;;;;8.65;1.73;;;;;;;;;;517278;28;1440;-86
2022/05/28 00:19:39;;;;;;;6.27;1.70;;;;;;;;;;515479;28;1449;-87
2022/05/28 00:19:54;;;;;;;6.90;1.70;;;;;;;;;;515527;28;1559;-87
2022/05/28 00:20:26;;;;;;;7.93;1.52;;;;;;;;;;350205;28;10000755;-86
2022/05/28 00:20:41;;;;;;;9.50;1.60;;;;;;;;;;170825;28;10001076;-86
2022/05/28 00:20:57;;;;;;;8.55;1.75;;;;;;;;;;514951;28;1914;-86
2022/05/28 00:21:14;;;;;;;7.83;1.73;;;;;;;;;;518682;28;1463;-86
2022/05/28 00:21:29;;;;;;;8.80;1.67;;;;;;;;;;518992;28;1629;-86
2022/05/28 00:21:44;;;;;;;8.43;1.60;;;;;;;;;;519010;28;1663;-87
2022/05/28 00:22:00;;;;;;;7.75;1.50;;;;;;;;;;518155;28;1519;-85
2022/05/28 00:22:15;;;;;;;6.80;1.30;;;;;;;;;;517394;28;1518;-86
2022/05/28 00:22:31;;;;;;;6.17;1.40;;;;;;;;;;517330;28;1490;-87
2022/05/28 00:22:46;;;;;;;7.15;1.60;;;;;;;;;;519445;28;1775;-86
2022/05/28 00:23:02;;;;;;;7.10;1.60;;;;;;;;;;517504;28;1866;-86
2022/05/28 00:23:18;;;;;;;7.38;1.38;;;;;;;;;;516966;28;1433;-87
2022/05/28 00:23:35;;;;;;;7.00;1.40;;;;;;;;;;516579;28;1505;-87
2022/05/28 00:23:50;;;;;;;6.70;1.60;;;;;;;;;;515685;28;1621;-86
2022/05/28 00:24:06;;;;;;;7.10;1.55;;;;;;;;;;514930;28;1568;-86
2022/05/28 00:24:21;;;;;;;6.80;1.50;;;;;;;;;;514497;28;1512;-88
2022/05/28 00:24:37;;;;;;;7.20;1.53;;;;;;;;;;517332;28;1434;-86
2022/05/28 00:24:52;;;;;;;8.25;1.65;;;;;;;;;;516655;28;1836;-86
2022/05/28 00:25:10;;;;;;;8.43;1.60;;;;;;;;;;514948;28;1794;-86
2022/05/28 00:25:26;;;;;;;7.18;1.50;;;;;;;;;;515290;28;1537;-87
2022/05/28 00:25:42;;;;;;;7.45;1.60;;;;;;;;;;515143;28;1472;-87
2022/05/28 00:25:57;;;;;;;7.40;1.70;;;;;;;;;;515346;28;1484;-87
2022/05/28 00:26:14;;;;;;;6.65;1.58;;;;;;;;;;515127;28;1638;-86
2022/05/28 00:26:29;;;;;;;6.85;1.35;;;;;;;;;;514933;28;1504;-86
2022/05/28 00:26:44;;;;;;;7.63;1.50;;;;;;;;;;516943;28;1866;-87
2022/05/28 00:27:00;;;;;;;7.38;1.60;;;;;;;;;;518132;28;1483;-86
2022/05/28 00:27:16;;;;;;;7.03;1.50;;;;;;;;;;517394;28;1608;-86
2022/05/28 00:27:31;;;;;;;6.70;1.42;;;;;;;;;;517262;28;1357;-86
2022/05/28 00:27:46;;;;;;;7.07;1.43;;;;;;;;;;517138;28;1562;-85
2022/05/28 00:28:02;;;;;;;6.78;1.58;;;;;;;;;;517655;28;1521;-87
2022/05/28 00:28:21;;;;;;;5.63;1.50;;;;;;;;;;516869;28;1612;-86
2022/05/28 00:28:36;;;;;;;5.05;1.30;;;;;;;;;;515067;28;1512;-86
2022/05/28 00:28:52;;;;;;;5.80;1.30;;;;;;;;;;513246;28;1475;-86
2022/05/28 00:29:08;;;;;;;6.70;1.30;;;;;;;;;;511737;28;1862;-86
2022/05/28 00:29:23;;;;;;;5.90;1.20;;;;;;;;;;511244;29;1420;-87
2022/05/28 00:29:38;;;;;;;6.43;1.37;;;;;;;;;;510842;29;1457;-87
2022/05/28 00:29:54;;;;;;;7.18;1.45;;;;;;;;;;512963;28;1432;-86
2022/05/28 00:30:13;;;;;;;6.83;1.57;;;;;;;;;;514933;28;1732;-87
2022/05/28 00:30:28;;;;;;;7.15;1.75;;;;;;;;;;513460;28;1313;-86
2022/05/28 00:30:43;;;;;;;7.05;1.50;;;;;;;;;;513058;28;1836;-86
2022/05/28 00:31:00;;;;;;;7.03;1.50;;;;;;;;;;515317;28;1523;-87
2022/05/28 00:31:16;;;;;;;8.77;1.70;;;;;;;;;;515052;28;1600;-86
2022/05/28 00:31:32;;;;;;;8.93;1.63;;;;;;;;;;515611;28;1441;-86
2022/05/28 00:31:47;;;;;;;8.57;1.50;;;;;;;;;;513557;28;1461;-86
2022/05/28 00:32:03;;;;;;;8.85;1.52;;;;;;;;;;513862;28;1629;-87
2022/05/28 00:32:19;;;;;;;8.27;1.50;;;;;;;;;;514047;28;1529;-87
2022/05/28 00:32:34;;;;;;;7.73;1.57;;;;;;;;;;515062;28;1430;-87
2022/05/28 00:32:50;;;;;;;5.85;1.42;;;;;;;;;;515738;28;1862;-87
2022/05/28 00:33:05;;;;;;;4.63;1.20;;;;;;;;;;517613;28;1602;-86
2022/05/28 00:33:20;;;;;;;6.63;1.50;;;;;;;;;;517652;28;1728;-87
2022/05/28 00:33:36;;;;;;;8.90;1.70;;;;;;;;;;519407;28;1538;-87
2022/05/28 00:33:51;;;;;;;7.67;1.50;;;;;;;;;;519078;28;1489;-86
2022/05/28 00:34:07;;;;;;;7.07;1.63;;;;;;;;;;517095;28;1463;-87
2022/05/28 00:34:22;;;;;;;6.77;1.60;;;;;;;;;;516306;28;1635;-86
2022/05/28 00:34:40;;;;;;;6.32;1.65;;;;;;;;;;516848;28;1361;-87
2022/05/28 00:34:56;;;;;;;6.13;1.63;;;;;;;;;;514770;28;1406;-86
2022/05/28 00:35:15;;;;;;;6.63;1.50;;;;;;;;;;515151;28;1617;-86
2022/05/28 00:35:31;;;;;;;6.68;1.48;;;;;;;;;;516134;28;1639;-86
2022/05/28 00:35:46;;;;;;;5.47;1.40;;;;;;;;;;515357;28;1457;-86
2022/05/28 00:36:04;;;;;;;5.35;1.35;;;;;;;;;;516397;28;1629;-86
2022/05/28 00:36:20;;;;;;;6.72;1.55;;;;;;;;;;514982;28;1495;-86
2022/05/28 00:36:35;;;;;;;7.23;1.60;;;;;;;;;;513065;28;1422;-87
2022/05/28 00:36:51;;;;;;;8.02;1.60;;;;;;;;;;512888;28;1744;-86
2022/05/28 00:37:07;;;;;;;7.20;1.63;;;;;;;;;;513202;28;1365;-86
2022/05/28 00:37:23;;;;;;;6.47;1.63;;;;;;;;;;514597;28;1661;-86
2022/05/28 00:37:38;;;;;;;6.13;1.40;;;;;;;;;;515036;28;1493;-86
2022/05/28 00:37:54;;;;;;;6.47;1.40;;;;;;;;;;514247;28;1496;-86
2022/05/28 00:38:09;;;;;;;6.50;1.33;;;;;;;;;;516734;28;1482;-87
2022/05/28 00:38:24;;;;;;;5.25;1.30;;;;;;;;;;515225;28;1558;-87
2022/05/28 00:38:41;;;;;;;6.17;1.53;;;;;;;;;;514222;28;1543;-87
2022/05/28 00:38:56;;;;;;;7.25;1.73;;;;;;;;;;514907;28;2021;-87
2022/05/28 00:39:12;;;;;;;6.03;1.63;;;;;;;;;;515551;28;1614;-87
2022/05/28 00:39:27;;;;;;;6.05;1.45;;;;;;;;;;517298;28;1464;-86
2022/05/28 00:39:42;;;;;;;6.23;1.40;;;;;;;;;;515193;28;1522;-87
2022/05/28 00:40:01;;;;;;;5.77;1.33;;;;;;;;;;516518;28;1510;-87
2022/05/28 00:40:22;;;;;;;5.18;1.35;;;;;;;;;;515423;28;1396;-87
2022/05/28 00:40:37;;;;;;;5.40;1.52;;;;;;;;;;512333;28;1510;-87
2022/05/28 00:40:55;;;;;;;4.50;1.40;;;;;;;;;;512775;28;1958;-86
2022/05/28 00:41:12;;;;;;;5.63;1.30;;;;;;;;;;512529;28;1649;-86
2022/05/28 00:41:27;;;;;;;6.68;1.40;;;;;;;;;;510588;28;1575;-87
2022/05/28 00:41:43;;;;;;;7.23;1.50;;;;;;;;;;513016;28;1390;-87
2022/05/28 00:41:58;;;;;;;6.57;1.57;;;;;;;;;;513571;28;1639;-87
2022/05/28 00:42:13;;;;;;;6.10;1.50;;;;;;;;;;514625;28;1793;-86
2022/05/28 00:42:29;;;;;;;5.60;1.33;;;;;;;;;;514839;28;1455;-87
2022/05/28 00:42:44;;;;;;;6.95;1.55;;;;;;;;;;512760;28;1424;-87
2022/05/28 00:43:02;;;;;;;6.97;1.57;;;;;;;;;;512697;28;1672;-87
2022/05/28 00:43:18;;;;;;;3.92;1.17;;;;;;;;;;510708;29;1441;-87
2022/05/28 00:43:34;;;;;;;4.13;1.30;;;;;;;;;;513088;28;1397;-86
2022/05/28 00:43:49;;;;;;;5.30;1.52;;;;;;;;;;514459;28;1518;-86
2022/05/28 00:44:06;;;;;;;5.87;1.50;;;;;;;;;;517268;28;1563;-87
2022/05/28 00:44:22;;;;;;;5.75;1.40;;;;;;;;;;515596;28;1932;-87
2022/05/28 00:44:37;;;;;;;6.25;1.40;;;;;;;;;;515121;28;1507;-86
2022/05/28 00:44:53;;;;;;;6.23;1.40;;;;;;;;;;514410;28;1873;-87
2022/05/28 00:45:10;;;;;;;6.10;1.38;;;;;;;;;;515870;28;1361;-87
2022/05/28 00:45:26;;;;;;;7.07;1.38;;;;;;;;;;515153;28;1457;-86
2022/05/28 00:45:44;;;;;;;7.57;1.43;;;;;;;;;;513076;28;1583;-87
2022/05/28 00:46:03;;;;;;;6.53;1.50;;;;;;;;;;514037;28;1566;-87
2022/05/28 00:46:23;;;;;;;6.65;1.48;;;;;;;;;;515393;28;1598;-87
2022/05/28 00:46:42;;;;;;;5.50;1.38;;;;;;;;;;517242;28;1585;-87
2022/05/28 00:46:59;;;;;;;6.47;1.40;;;;;;;;;;517150;28;1416;-87
2022/05/28 00:47:17;;;;;;;7.13;1.60;;;;;;;;;;518678;28;1963;-87
2022/05/28 00:47:32;;;;;;;6.72;1.52;;;;;;;;;;516842;28;1578;-87
2022/05/28 00:47:51;;;;;;;5.70;1.40;;;;;;;;;;517202;28;1434;-87
2022/05/28 00:48:07;;;;;;;5.68;1.48;;;;;;;;;;517254;28;1425;-86
2022/05/28 00:48:26;;;;;;;6.85;1.60;;;;;;;;;;518856;28;1683;-86
2022/05/28 00:48:45;;;;;;;6.13;1.45;;;;;;;;;;519360;28;1836;-87
2022/05/28 00:49:04;;;;;;;6.43;1.40;;;;;;;;;;516562;28;1502;-86
2022/05/28 00:49:27;;;;;;;5.63;1.38;;;;;;;;;;519385;28;1565;-86
2022/05/28 00:49:43;;;;;;;6.13;1.60;;;;;;;;;;519070;28;1499;-86
2022/05/28 00:49:58;;;;;;;7.07;1.50;;;;;;;;;;519338;28;1363;-86
2022/05/28 00:50:14;;;;;;;6.10;1.40;;;;;;;;;;519260;28;2071;-85
2022/05/28 00:50:30;;;;;;;5.97;1.42;;;;;;;;;;519079;28;1387;-87
2022/05/28 00:50:46;;;;;;;6.22;1.55;;;;;;;;;;519156;28;1444;-87
2022/05/28 00:51:06;;;;;;;6.03;1.50;;;;;;;;;;521181;28;1470;-87
2022/05/28 00:51:27;;;;;;;6.88;1.60;;;;;;;;;;519273;28;1530;-86
2022/05/28 00:51:48;;;;;;;7.40;1.77;;;;;;;;;;519316;28;1385;-87
2022/05/28 00:52:07;;;;;;;7.53;1.70;;;;;;;;;;519221;28;1509;-86
2022/05/28 00:52:25;;;;;;;6.68;1.60;;;;;;;;;;518879;28;1591;-87
2022/05/28 00:52:42;;;;;;;6.13;1.52;;;;;;;;;;517007;28;1597;-87
2022/05/28 00:52:58;;;;;;;6.25;1.70;;;;;;;;;;516791;28;1427;-87
2022/05/28 00:53:13;;;;;;;5.90;1.55;;;;;;;;;;517453;28;1648;-87
2022/05/28 00:53:28;;;;;;;6.20;1.63;;;;;;;;;;515217;28;1437;-87
2022/05/28 00:53:44;;;;;;;5.63;1.53;;;;;;;;;;513021;28;1569;-87
2022/05/28 00:54:02;;;;;;;6.30;1.47;;;;;;;;;;513375;28;1536;-85
2022/05/28 00:54:18;;;;;;;5.80;1.50;;;;;;;;;;514862;28;1470;-86
2022/05/28 00:54:46;;;;;;;6.30;1.40;;;;;;;;;;515455;28;1538;-86
2022/05/28 00:55:03;;;;;;;6.00;1.50;;;;;;;;;;515220;28;1554;-86
2022/05/28 00:55:19;;;;;;;6.20;1.45;;;;;;;;;;516263;28;1499;-87
2022/05/28 00:55:35;;;;;;;6.30;1.40;;;;;;;;;;514817;28;1554;-87
2022/05/28 00:55:51;;;;;;;7.13;1.48;;;;;;;;;;516919;28;1391;-87
2022/05/28 00:56:07;;;;;;;8.57;1.60;;;;;;;;;;516496;28;1868;-87
2022/05/28 00:56:24;;;;;;;8.15;1.60;;;;;;;;;;515706;28;1502;-87
2022/05/28 00:56:40;;;;;;;7.72;1.65;;;;;;;;;;515611;28;1518;-87
2022/05/28 00:56:56;;;;;;;6.85;1.60;;;;;;;;;;516055;28;1597;-86
2022/05/28 00:57:14;;;;;;;6.80;1.52;;;;;;;;;;515395;28;1573;-87
2022/05/28 00:57:30;;;;;;;7.07;1.50;;;;;;;;;;514585;28;1542;-87
2022/05/28 00:57:47;;;;;;;5.80;1.60;;;;;;;;;;512831;28;1437;-87
2022/05/28 00:58:06;;;;;;;6.47;1.50;;;;;;;;;;513044;28;1545;-87
2022/05/28 00:58:21;;;;;;;6.95;1.55;;;;;;;;;;512922;28;1450;-86
2022/05/28 00:58:37;;;;;;;6.27;1.50;;;;;;;;;;513497;28;1421;-86
2022/05/28 00:58:53;;;;;;;5.95;1.50;;;;;;;;;;514675;28;1589;-86
2022/05/28 00:59:09;;;;;;;6.45;1.60;;;;;;;;;;514789;28;1704;-86
2022/05/28 00:59:25;;;;;;;6.97;1.73;;;;;;;;;;515369;28;1397;-86
2022/05/28 00:59:44;;;;;;;7.47;1.83;;;;;;;;;;515686;28;1505;-86
2022/05/28 01:00:00;;;;;;;6.65;1.83;;;;;;;;;;516221;28;1503;-87
2022/05/28 01:00:19;;;;;;;6.97;1.75;;;;;;;;;;518317;28;1440;-87
2022/05/28 01:00:35;;;;;;;8.23;1.75;;;;;;;;;;517157;28;1666;-87
2022/05/28 01:00:50;;;;;;;8.25;1.77;;;;;;;;;;515060;28;1566;-87
2022/05/28 01:01:09;;;;;;;7.03;1.73;;;;;;;;;;514527;28;1980;-87
2022/05/28 01:01:27;;;;;;;6.57;1.70;;;;;;;;;;513746;28;1659;-87
2022/05/28 01:01:43;;;;;;;6.28;1.70;;;;;;;;;;513242;28;1497;-87
2022/05/28 01:02:24;;;;;;;7.05;1.70;;;;;;;;;;514869;28;1491;-87
2022/05/28 01:02:51;;;;;;;7.57;1.80;;;;;;;;;;517343;28;1443;-87
2022/05/28 01:03:08;;;;;;;7.95;1.70;;;;;;;;;;519249;28;1839;-86
2022/05/28 01:03:24;;;;;;;7.72;1.63;;;;;;;;;;520565;28;1563;-86
2022/05/28 01:03:54;;;;;;;8.10;1.70;;;;;;;;;;519466;28;1447;-87
2022/05/28 01:04:46;;;;;;;8.40;1.83;;;;;;;;;;517402;28;1378;-86
2022/05/28 01:05:13;;;;;;;6.35;1.70;;;;;;;;;;517110;28;1461;-87
2022/05/28 01:05:32;;;;;;;7.20;1.52;;;;;;;;;;517326;28;1695;-87
2022/05/28 01:06:14;;;;;;;6.90;1.60;;;;;;;;;;518591;28;1494;-87
2022/05/28 01:06:58;;;;;;;6.60;1.70;;;;;;;;;;518637;28;1585;-87
2022/05/28 01:07:36;;;;;;;6.55;1.90;;;;;;;;;;514936;28;1469;-87
2022/05/28 01:08:41;;;;;;;5.20;1.70;;;;;;;;;;514882;28;1569;-86
2022/05/28 01:09:02;;;;;;;5.38;1.60;;;;;;;;;;510654;29;1506;-87
2022/05/28 01:09:27;;;;;;;5.70;1.42;;;;;;;;;;512667;28;1516;-86
2022/05/28 01:09:57;;;;;;;4.80;1.30;;;;;;;;;;511081;29;1834;-86
2022/05/28 01:10:26;;;;;;;5.95;1.70;;;;;;;;;;516610;28;1522;-88
2022/05/28 01:11:02;;;;;;;5.13;1.42;;;;;;;;;;516983;28;1470;-86
2022/05/28 01:11:46;;;;;;;6.65;2.00;;;;;;;;;;517259;28;1411;-86
2022/05/28 01:12:15;;;;;;;5.80;1.60;;;;;;;;;;515031;28;1515;-87
2022/05/28 01:12:49;;;;;;;6.38;1.60;;;;;;;;;;519495;28;1384;-88
2022/05/28 01:13:08;;;;;;;8.07;1.90;;;;;;;;;;520639;28;1502;-87
2022/05/28 01:13:54;;;;;;;5.97;1.70;;;;;;;;;;520550;28;1489;-87
2022/05/28 01:14:24;;;;;;;6.03;1.73;;;;;;;;;;518035;28;1539;-87
2022/05/28 01:14:54;;;;;;;5.47;1.70;;;;;;;;;;515578;28;1507;-87
2022/05/28 01:15:12;;;;;;;5.97;1.67;;;;;;;;;;515885;28;1538;-87
2022/05/28 01:15:35;;;;;;;7.45;2.08;;;;;;;;;;518269;28;1413;-87
2022/05/28 01:15:58;;;;;;;7.50;2.00;;;;;;;;;;518041;28;1423;-88
2022/05/28 01:16:30;;;;;;;6.85;1.90;;;;;;;;;;521348;28;1458;-87
2022/05/28 01:16:49;;;;;;;7.63;1.80;;;;;;;;;;518645;28;1716;-87
2022/05/28 01:17:19;;;;;;;7.32;1.90;;;;;;;;;;518863;28;1530;-87
2022/05/28 01:17:36;;;;;;;8.38;1.90;;;;;;;;;;519390;28;1322;-87
2022/05/28 01:18:04;;;;;;;4.75;1.77;;;;;;;;;;519205;28;1368;-87
2022/05/28 01:18:32;;;;;;;6.60;1.80;;;;;;;;;;518772;28;1436;-87
2022/05/28 01:18:52;;;;;;;6.28;1.80;;;;;;;;;;518802;28;1416;-87
2022/05/28 01:19:54;;;;;;;6.97;1.88;;;;;;;;;;519169;28;1448;-87
2022/05/28 01:20:16;;;;;;;8.25;1.80;;;;;;;;;;505936;29;902;-87
2022/05/28 01:20:40;;;;;;;7.57;1.80;;;;;;;;;;507571;28;1163;-87
2022/05/28 01:21:01;;;;;;;9.05;2.30;;;;;;;;;;516177;28;1887;-88
2022/05/28 01:21:30;;;;;;;7.78;2.00;;;;;;;;;;516676;28;1538;-87
2022/05/28 01:21:51;;;;;;;7.88;1.90;;;;;;;;;;514748;28;1507;-87
2022/05/28 01:22:27;;;;;;;8.93;1.80;;;;;;;;;;517076;28;1439;-87
2022/05/28 01:22:51;;;;;;;7.22;1.73;;;;;;;;;;515542;28;1489;-87
2022/05/28 01:23:28;;;;;;;6.95;1.85;;;;;;;;;;514964;28;1592;-87
2022/05/28 01:24:02;;;;;;;6.95;1.92;;;;;;;;;;518590;28;1271;-87
2022/05/28 01:24:48;;;;;;;7.03;1.70;;;;;;;;;;519411;28;1502;-87
2022/05/28 01:25:08;;;;;;;5.78;1.75;;;;;;;;;;520513;28;1502;-87
2022/05/28 01:25:40;;;;;;;6.78;1.85;;;;;;;;;;521375;28;1338;-87
2022/05/28 01:26:20;;;;;;;6.47;1.70;;;;;;;;;;521548;28;1466;-87
2022/05/28 01:26:41;;;;;;;8.43;1.80;;;;;;;;;;521243;28;1478;-88
2022/05/28 01:27:05;;;;;;;8.10;1.80;;;;;;;;;;521859;28;1410;-87
2022/05/28 01:27:24;;;;;;;8.93;1.80;;;;;;;;;;521047;28;1493;-87
2022/05/28 01:27:49;;;;;;;7.30;2.00;;;;;;;;;;518427;28;1487;-86
2022/05/28 01:28:09;;;;;;;6.22;1.60;;;;;;;;;;519431;28;1471;-87
2022/05/28 01:28:32;;;;;;;6.78;1.85;;;;;;;;;;516789;28;1455;-87
2022/05/28 01:29:00;;;;;;;7.90;1.77;;;;;;;;;;517046;28;1412;-86
2022/05/28 01:29:17;;;;;;;9.00;1.90;;;;;;;;;;517111;28;1542;-87
2022/05/28 01:29:39;;;;;;;7.28;1.85;;;;;;;;;;516678;28;1522;-87
2022/05/28 01:30:01;;;;;;;5.55;1.70;;;;;;;;;;517468;28;1915;-86
2022/05/28 01:30:18;;;;;;;7.38;1.90;;;;;;;;;;517059;28;1448;-87
2022/05/28 01:30:34;;;;;;;7.53;1.90;;;;;;;;;;515235;28;1464;-87
2022/05/28 01:30:51;;;;;;;6.68;1.80;;;;;;;;;;512998;28;1537;-87
2022/05/28 01:31:07;;;;;;;6.40;1.60;;;;;;;;;;513281;28;1504;-87
2022/05/28 01:31:26;;;;;;;6.88;1.73;;;;;;;;;;515772;28;1401;-87
2022/05/28 01:31:42;;;;;;;8.73;1.90;;;;;;;;;;516646;28;1609;-87
2022/05/28 01:31:59;;;;;;;7.25;1.70;;;;;;;;;;516973;28;1519;-87
2022/05/28 01:32:17;;;;;;;6.32;1.70;;;;;;;;;;516538;28;1559;-87
2022/05/28 01:32:34;;;;;;;7.30;1.83;;;;;;;;;;514927;28;1634;-88
2022/05/28 01:32:52;;;;;;;7.90;2.03;;;;;;;;;;514841;28;1637;-87
2022/05/28 01:33:09;;;;;;;6.78;1.70;;;;;;;;;;514919;28;1488;-87
2022/05/28 01:33:26;;;;;;;6.60;1.77;;;;;;;;;;513513;28;1478;-87
2022/05/28 01:33:42;;;;;;;6.72;1.92;;;;;;;;;;514065;28;1622;-88
2022/05/28 01:34:01;;;;;;;7.00;1.80;;;;;;;;;;518119;28;894;-84
2022/05/28 01:34:19;;;;;;;8.20;1.92;;;;;;;;;;517956;28;1639;-84
2022/05/28 01:34:34;;;;;;;8.48;2.00;;;;;;;;;;520044;28;1400;-84
2022/05/28 01:34:50;;;;;;;7.83;1.90;;;;;;;;;;518235;28;1559;-84
2022/05/28 01:35:09;;;;;;;6.53;1.85;;;;;;;;;;516238;28;1258;-84
2022/05/28 01:35:28;;;;;;;7.03;1.98;;;;;;;;;;518101;28;1553;-84
2022/05/28 01:35:46;;;;;;;7.20;1.75;;;;;;;;;;518784;28;1263;-84
2022/05/28 01:36:05;;;;;;;6.10;1.63;;;;;;;;;;520357;28;925;-84
2022/05/28 01:36:21;;;;;;;6.38;1.88;;;;;;;;;;519991;28;1673;-83
2022/05/28 01:36:37;;;;;;;6.70;1.83;;;;;;;;;;520276;28;1028;-83
2022/05/28 01:36:55;;;;;;;6.05;1.65;;;;;;;;;;520440;28;862;-84
2022/05/28 01:37:11;;;;;;;6.30;1.70;;;;;;;;;;519915;28;1682;-83
2022/05/28 01:37:29;;;;;;;6.53;1.80;;;;;;;;;;517131;28;1568;-83
2022/05/28 01:37:48;;;;;;;6.43;1.77;;;;;;;;;;517995;28;1558;-84
2022/05/28 01:38:06;;;;;;;8.40;2.10;;;;;;;;;;514152;28;1347;-84
2022/05/28 01:38:23;;;;;;;8.20;1.95;;;;;;;;;;514233;28;859;-83
2022/05/28 01:38:41;;;;;;;7.05;1.80;;;;;;;;;;516064;28;1575;-83
2022/05/28 01:38:57;;;;;;;8.10;1.85;;;;;;;;;;516094;28;1084;-84
2022/05/28 01:39:12;;;;;;;9.00;2.17;;;;;;;;;;518144;28;956;-84
2022/05/28 01:39:29;;;;;;;7.63;2.22;;;;;;;;;;519889;28;1582;-83
2022/05/28 01:39:47;;;;;;;7.35;2.03;;;;;;;;;;520092;28;1107;-83
2022/05/28 01:40:06;;;;;;;7.88;1.90;;;;;;;;;;521960;28;1666;-84
2022/05/28 01:40:23;;;;;;;7.70;1.98;;;;;;;;;;522026;28;1252;-83
2022/05/28 01:40:41;;;;;;;7.07;2.03;;;;;;;;;;522308;28;1135;-84
2022/05/28 01:40:57;;;;;;;6.53;2.10;;;;;;;;;;520088;28;1961;-83
2022/05/28 01:41:15;;;;;;;6.53;2.00;;;;;;;;;;518072;28;1272;-83
2022/05/28 01:41:31;;;;;;;7.90;2.10;;;;;;;;;;517903;28;1355;-83
2022/05/28 01:41:48;;;;;;;7.28;1.95;;;;;;;;;;515998;28;1327;-83
2022/05/28 01:42:06;;;;;;;7.78;1.92;;;;;;;;;;516196;28;976;-84
2022/05/28 01:42:22;;;;;;;7.80;2.00;;;;;;;;;;516011;28;830;-84
2022/05/28 01:42:43;;;;;;;7.10;1.98;;;;;;;;;;516107;28;1379;-83
2022/05/28 01:43:03;;;;;;;7.63;2.22;;;;;;;;;;517976;28;1647;-83
2022/05/28 01:43:20;;;;;;;7.82;2.10;;;;;;;;;;518412;28;1449;-83
2022/05/28 01:43:40;;;;;;;9.48;2.22;;;;;;;;;;518039;28;1336;-83
2022/05/28 01:43:56;;;;;;;7.03;2.10;;;;;;;;;;515628;28;1363;-83
2022/05/28 01:44:15;;;;;;;5.43;1.83;;;;;;;;;;515834;28;1300;-83
2022/05/28 01:44:32;;;;;;;7.78;1.90;;;;;;;;;;518331;28;909;-84
2022/05/28 01:44:50;;;;;;;9.15;2.17;;;;;;;;;;515977;28;1588;-84
2022/05/28 01:45:07;;;;;;;8.77;2.25;;;;;;;;;;516215;28;1598;-84
2022/05/28 01:45:28;;;;;;;9.40;2.20;;;;;;;;;;518578;28;886;-84
2022/05/28 01:45:45;;;;;;;7.80;1.77;;;;;;;;;;518293;28;1346;-84
2022/05/28 01:46:00;;;;;;;6.90;1.95;;;;;;;;;;517855;28;1400;-84
2022/05/28 01:46:18;;;;;;;8.52;2.33;;;;;;;;;;518270;28;1297;-83
2022/05/28 01:46:36;;;;;;;8.73;2.30;;;;;;;;;;518331;28;1568;-83
2022/05/28 01:46:52;;;;;;;6.75;1.95;;;;;;;;;;520187;28;1255;-84
2022/05/28 01:47:08;;;;;;;8.13;1.98;;;;;;;;;;520276;28;1251;-84
2022/05/28 01:47:25;;;;;;;8.88;2.03;;;;;;;;;;520297;28;850;-84
2022/05/28 01:47:43;;;;;;;8.05;2.00;;;;;;;;;;515184;28;1566;-84
2022/05/28 01:48:04;;;;;;;7.00;1.92;;;;;;;;;;516310;28;909;-84
2022/05/28 01:48:21;;;;;;;6.40;1.77;;;;;;;;;;515650;28;1034;-84
2022/05/28 01:48:39;;;;;;;6.25;1.70;;;;;;;;;;514257;28;1212;-84
2022/05/28 01:48:56;;;;;;;7.38;1.88;;;;;;;;;;516265;28;1347;-83
2022/05/28 01:49:16;;;;;;;8.68;1.95;;;;;;;;;;518072;28;1325;-84
2022/05/28 01:49:33;;;;;;;8.20;1.95;;;;;;;;;;516611;28;1421;-84
2022/05/28 01:49:49;;;;;;;7.85;1.90;;;;;;;;;;518061;28;904;-84
2022/05/28 01:50:07;;;;;;;6.55;1.80;;;;;;;;;;515975;28;1583;-84
2022/05/28 01:50:25;;;;;;;5.25;1.70;;;;;;;;;;518119;28;1397;-83
2022/05/28 01:50:45;;;;;;;5.10;1.63;;;;;;;;;;519611;28;1515;-84
2022/05/28 01:51:02;;;;;;;8.23;1.90;;;;;;;;;;515299;28;1628;-84
2022/05/28 01:51:18;;;;;;;9.45;2.00;;;;;;;;;;516548;28;1372;-84
2022/05/28 01:51:39;;;;;;;6.38;1.90;;;;;;;;;;517998;28;1609;-84
2022/05/28 01:51:59;;;;;;;7.57;2.00;;;;;;;;;;516260;28;1499;-84
2022/05/28 01:52:16;;;;;;;7.40;1.80;;;;;;;;;;518178;28;1530;-84
2022/05/28 01:52:33;;;;;;;6.90;1.90;;;;;;;;;;517349;28;1627;-84
2022/05/28 01:52:50;;;;;;;7.20;1.83;;;;;;;;;;517385;28;1474;-84
2022/05/28 01:53:07;;;;;;;7.60;1.75;;;;;;;;;;520105;28;1465;-84
2022/05/28 01:54:07;;;;;;;6.30;1.70;;;;;;;;;;517649;28;1500;-85
2022/05/28 01:54:29;;;;;;;8.05;2.10;;;;;;;;;;519809;28;1477;-85
2022/05/28 01:54:47;;;;;;;8.75;2.05;;;;;;;;;;519630;28;1469;-85
2022/05/28 01:55:03;;;;;;;9.57;1.83;;;;;;;;;;518631;28;1467;-84
2022/05/28 01:55:20;;;;;;;7.95;2.00;;;;;;;;;;519335;28;1648;-85
2022/05/28 01:55:42;;;;;;;7.90;2.10;;;;;;;;;;519356;28;1471;-84
2022/05/28 01:55:57;;;;;;;8.20;1.90;;;;;;;;;;520383;28;1505;-84
2022/05/28 01:56:12;;;;;;;6.70;1.75;;;;;;;;;;520601;28;1461;-85
2022/05/28 01:56:28;;;;;;;6.73;1.70;;;;;;;;;;520349;28;1539;-84